Terminal Aerodrome Forecast
Issued by NWS

Home | Current Version | Previous Version | Graphics & Text | Print | Product List | Glossary On
Versions: 1 2 3 4 5 6 7 8 9 10 11 12 13 14 15 16
000
FTUS42 KMHX 181122
TAFISO
TAF
KISO 181122Z 1812/1912 19005KT 2SM BR OVC005
     FM181300 21005KT P6SM SCT050
     FM181800 21008KT P6SM VCTS BKN050CB
     FM190000 21005KT P6SM BKN050
     FM190800 22003KT 3SM BR BKN030
      AMD LTD TO CLD VIS AND WIND=

USA.gov is the U.S. government's official web portal to all federal, state and local government web resources and services.